Time;durP1;ratioP1;P1;durP2;ratioP2;P2;SDS_P1;SDS_P2;PMS_P1;PMS_P2;Temp;Humidity;BMP_temperature;BMP_pressure;BME280_temperature;BME280_humidity;BME280_pressure;Samples;Min_cycle;Max_cycle;Signal;HPM_P1;HPM_P2
2022/11/10 00:01:26;;;;;;;;;14.00;12.00;;;;;11.62;99.05;101662.69;5105804;27;49011;-80
2022/11/10 00:03:51;;;;;;;;;19.00;18.67;;;;;11.67;98.88;101672.88;5103163;27;46576;-81
2022/11/10 00:06:16;;;;;;;;;19.00;16.67;;;;;11.66;99.22;101676.50;5097394;27;48468;-80
2022/11/10 00:08:41;;;;;;;;;18.33;17.67;;;;;11.68;99.43;101677.19;5104200;27;45241;-81
2022/11/10 00:11:07;;;;;;;;;15.33;15.33;;;;;11.65;99.43;101675.69;5104144;27;45275;-81
2022/11/10 00:16:59;;;;;;;;;19.67;17.67;;;;;11.67;99.59;101679.00;5093707;27;45306;-81
2022/11/10 00:19:04;;;;;;;;;22.00;18.00;;;;;11.57;99.69;101673.81;5095450;27;45281;-81
2022/11/10 00:21:29;;;;;;;;;24.00;24.00;;;;;11.63;99.62;101688.31;5110487;27;49656;-81
2022/11/10 00:23:55;;;;;;;;;20.00;19.00;;;;;11.51;99.46;101679.75;5102999;27;54712;-81
2022/11/10 00:26:20;;;;;;;;;18.33;18.33;;;;;11.56;99.77;101700.59;5098907;27;50752;-81
2022/11/10 00:28:45;;;;;;;;;19.33;18.00;;;;;11.47;99.56;101689.06;5107432;27;52681;-81
2022/11/10 00:31:11;;;;;;;;;20.00;19.67;;;;;11.55;99.46;101713.06;5089356;27;45417;-80
2022/11/10 00:33:39;;;;;;;;;22.33;19.67;;;;;11.48;99.25;101699.56;5086649;28;46244;-81
2022/11/10 00:36:04;;;;;;;;;24.67;24.33;;;;;11.52;98.91;101700.06;5094099;27;45274;-81
2022/11/10 00:38:30;;;;;;;;;18.00;17.33;;;;;11.57;98.72;101704.91;5106351;27;45339;-81
2022/11/10 00:40:58;;;;;;;;;15.00;15.00;;;;;11.56;98.60;101711.25;5120842;27;45344;-81
2022/11/10 00:43:23;;;;;;;;;16.00;16.00;;;;;11.54;98.34;101705.22;5105447;27;47273;-81
2022/11/10 00:45:49;;;;;;;;;17.33;16.00;;;;;11.52;98.44;101697.41;5107911;27;45354;-81
2022/11/10 00:48:14;;;;;;;;;17.33;16.33;;;;;11.49;98.74;101703.88;5107018;27;49549;-80
2022/11/10 00:50:39;;;;;;;;;17.67;16.67;;;;;11.53;98.66;101714.22;5091126;27;45365;-80
2022/11/10 00:53:05;;;;;;;;;18.00;18.00;;;;;11.43;98.70;101707.16;5104604;27;50875;-81
2022/11/10 00:55:30;;;;;;;;;16.67;15.67;;;;;11.47;98.68;101723.66;5105290;27;47143;-80
2022/11/10 00:57:56;;;;;;;;;18.00;17.33;;;;;11.46;98.28;101725.47;5106556;27;45358;-81
2022/11/10 01:00:21;;;;;;;;;24.00;21.00;;;;;11.43;98.54;101730.31;5105216;27;45350;-80
2022/11/10 01:02:46;;;;;;;;;21.67;21.67;;;;;11.34;97.90;101716.91;5108417;27;45287;-81
2022/11/10 01:05:12;;;;;;;;;24.00;22.00;;;;;11.27;97.93;101718.53;5105072;27;45359;-81
2022/11/10 01:07:37;;;;;;;;;27.00;26.33;;;;;11.29;97.66;101724.56;5105949;27;45662;-81
2022/11/10 01:10:03;;;;;;;;;27.33;23.00;;;;;11.30;97.85;101726.22;5091951;27;45284;-81
2022/11/10 01:12:29;;;;;;;;;18.67;18.67;;;;;11.30;97.84;101739.53;5106881;27;45267;-82
2022/11/10 01:14:55;;;;;;;;;20.33;20.33;;;;;11.30;97.36;101736.00;5105071;27;46213;-81
2022/11/10 01:17:20;;;;;;;;;22.00;21.00;;;;;11.28;97.53;101735.34;5097368;27;45259;-80
2022/11/10 01:19:46;;;;;;;;;18.67;18.67;;;;;11.24;97.66;101743.63;5097859;27;45341;-81
2022/11/10 01:22:11;;;;;;;;;19.67;17.67;;;;;11.09;97.99;101735.38;5116812;27;47164;-81
2022/11/10 01:24:36;;;;;;;;;21.00;18.67;;;;;11.13;98.11;101743.84;5095824;27;45399;-81
2022/11/10 01:27:02;;;;;;;;;22.00;20.33;;;;;11.18;98.30;101748.72;5085554;27;45239;-81
2022/11/10 01:29:27;;;;;;;;;17.67;16.67;;;;;11.10;98.18;101734.38;5083612;28;45270;-80
2022/11/10 01:31:52;;;;;;;;;17.33;17.33;;;;;11.14;97.99;101747.38;5101062;27;48502;-81
2022/11/10 01:34:17;;;;;;;;;16.67;16.67;;;;;11.07;98.51;101736.47;5108760;27;45249;-81
2022/11/10 01:36:43;;;;;;;;;22.33;16.33;;;;;11.10;98.58;101750.31;5109298;27;45225;-81
2022/11/10 01:39:08;;;;;;;;;20.67;18.00;;;;;11.09;98.63;101745.16;5120839;27;46147;-81
2022/11/10 01:41:33;;;;;;;;;20.00;19.33;;;;;11.05;98.78;101749.94;5108172;27;45527;-80
2022/11/10 01:44:33;;;;;;;;;15.67;15.67;;;;;11.10;98.50;101758.31;5107000;27;46133;-81
2022/11/10 01:46:58;;;;;;;;;19.67;18.67;;;;;11.06;98.44;101761.41;5074376;27;45235;-81
2022/11/10 01:49:27;;;;;;;;;21.67;19.67;;;;;11.08;98.71;101775.41;5090260;27;45244;-81
2022/11/10 01:52:00;;;;;;;;;22.67;20.00;;;;;10.99;98.84;101759.38;5107893;27;45440;-81
2022/11/10 01:54:33;;;;;;;;;19.67;19.67;;;;;11.07;98.57;101779.03;5106404;27;45262;-81
2022/11/10 01:57:07;;;;;;;;;20.67;18.67;;;;;11.03;98.44;101772.38;5105126;27;45389;-81
2022/11/10 01:59:38;;;;;;;;;21.67;19.67;;;;;11.05;98.50;101781.03;5106682;27;45360;-81
2022/11/10 02:02:21;;;;;;;;;16.00;15.33;;;;;10.93;98.26;101767.94;5108140;27;47354;-81
2022/11/10 02:04:50;;;;;;;;;19.00;15.33;;;;;10.92;98.14;101774.25;5116292;27;46094;-81
2022/11/10 02:07:16;;;;;;;;;15.67;15.67;;;;;10.96;98.16;101783.59;5094130;27;45466;-81
2022/11/10 02:09:41;;;;;;;;;14.67;14.67;;;;;10.89;98.69;101781.72;5102329;27;45443;-81
2022/11/10 02:12:07;;;;;;;;;17.00;16.00;;;;;10.95;98.67;101794.41;5093368;27;45319;-80
2022/11/10 02:14:32;;;;;;;;;16.00;14.67;;;;;10.95;98.58;101792.59;5105216;27;45372;-81
2022/11/10 02:16:58;;;;;;;;;16.33;16.33;;;;;10.94;98.66;101798.06;5105145;27;45360;-81
2022/11/10 02:19:25;;;;;;;;;13.00;13.00;;;;;10.93;98.68;101789.22;5103977;27;45368;-81
2022/11/10 02:21:51;;;;;;;;;15.33;14.67;;;;;10.89;98.76;101787.03;5103945;27;45467;-81
2022/11/10 02:24:16;;;;;;;;;16.00;16.00;;;;;10.81;99.13;101770.00;5091759;27;46031;-81
2022/11/10 02:26:56;;;;;;;;;16.00;13.33;;;;;10.86;99.09;101782.84;5103383;27;45296;-80
2022/11/10 02:29:22;;;;;;;;;19.33;16.33;;;;;10.88;99.16;101791.50;5097594;27;45420;-81
2022/11/10 02:31:48;;;;;;;;;18.33;16.00;;;;;10.83;99.17;101783.13;5082597;27;47354;-81
2022/11/10 02:34:14;;;;;;;;;13.33;12.00;;;;;10.81;99.14;101788.59;5088746;27;45311;-81
2022/11/10 02:36:39;;;;;;;;;15.67;14.00;;;;;10.85;99.09;101786.50;5104151;27;45386;-81
2022/11/10 02:39:05;;;;;;;;;17.00;16.33;;;;;10.81;99.06;101780.63;5102734;27;45308;-81
2022/11/10 02:41:30;;;;;;;;;17.00;15.67;;;;;10.84;99.22;101783.00;5109154;27;45940;-80
2022/11/10 02:43:57;;;;;;;;;18.33;16.67;;;;;10.81;98.95;101779.81;5103903;27;45358;-81
2022/11/10 02:46:22;;;;;;;;;16.67;14.33;;;;;10.79;99.31;101784.44;5102774;27;45317;-80
2022/11/10 02:48:48;;;;;;;;;15.33;15.00;;;;;10.80;99.30;101783.44;5102910;27;45226;-81
2022/11/10 02:51:13;;;;;;;;;16.00;13.33;;;;;10.82;99.32;101789.44;5098210;27;45256;-80
2022/11/10 02:53:39;;;;;;;;;15.67;15.33;;;;;10.70;99.47;101773.72;5092157;27;45706;-81
2022/11/10 02:56:05;;;;;;;;;12.33;12.33;;;;;10.78;99.55;101790.75;5087853;27;46103;-80
2022/11/10 02:58:30;;;;;;;;;14.67;12.33;;;;;10.79;99.68;101795.06;5101922;27;45261;-81
2022/11/10 03:00:55;;;;;;;;;10.00;10.00;;;;;10.75;99.90;101796.38;5107846;27;45362;-81
2022/11/10 03:03:21;;;;;;;;;17.67;14.67;;;;;10.78;99.75;101798.72;5088495;27;45964;-81
2022/11/10 03:05:46;;;;;;;;;21.67;18.67;;;;;10.73;99.34;101794.69;5102885;27;44736;-80
2022/11/10 03:08:11;;;;;;;;;13.67;13.67;;;;;10.65;99.95;101781.28;5096444;27;46642;-81
2022/11/10 03:10:36;;;;;;;;;14.00;14.00;;;;;10.69;99.32;101785.31;5091783;27;45808;-81
2022/11/10 03:13:02;;;;;;;;;18.00;16.00;;;;;10.69;99.58;101785.31;5087107;27;45361;-81
2022/11/10 03:15:28;;;;;;;;;14.00;13.67;;;;;10.69;99.27;101780.00;5097926;27;45714;-81
2022/11/10 03:17:54;;;;;;;;;14.67;14.67;;;;;10.74;99.28;101784.88;5092524;27;45317;-81
2022/11/10 03:20:19;;;;;;;;;17.33;14.00;;;;;10.69;99.26;101784.50;5101595;27;45351;-80
2022/11/10 03:22:45;;;;;;;;;13.00;12.33;;;;;10.70;99.46;101789.69;5097036;27;46816;-80
2022/11/10 03:25:11;;;;;;;;;13.67;12.67;;;;;10.73;99.55;101789.38;5096790;27;45381;-80
2022/11/10 03:27:37;;;;;;;;;3.67;3.67;;;;;10.70;99.66;101783.50;5102094;27;45290;-81
2022/11/10 03:30:04;;;;;;;;;11.33;11.33;;;;;10.73;99.45;101794.69;5090354;27;45383;-81
2022/11/10 03:32:29;;;;;;;;;13.00;11.67;;;;;10.74;100.00;101800.84;5097459;27;45349;-80
2022/11/10 03:34:55;;;;;;;;;15.00;13.33;;;;;10.76;99.88;101804.19;5095043;27;45239;-81
2022/11/10 03:37:20;;;;;;;;;15.33;15.33;;;;;10.78;99.99;101806.69;5083461;27;45267;-80
2022/11/10 03:39:46;;;;;;;;;17.67;16.67;;;;;10.79;99.50;101803.03;5091556;27;45477;-81
2022/11/10 03:42:11;;;;;;;;;16.00;15.67;;;;;10.75;99.25;101802.53;5110627;27;48275;-80
2022/11/10 03:44:36;;;;;;;;;17.00;15.00;;;;;10.67;99.40;101797.94;5089735;27;45289;-81
2022/11/10 03:47:02;;;;;;;;;11.33;11.33;;;;;10.74;99.57;101822.09;5110254;27;45351;-80
2022/11/10 03:49:29;;;;;;;;;15.67;14.67;;;;;10.72;99.52;101813.47;5101441;27;45477;-81
2022/11/10 03:51:54;;;;;;;;;12.33;12.33;;;;;10.72;99.24;101824.91;5102618;27;45360;-81
2022/11/10 03:54:19;;;;;;;;;13.00;11.33;;;;;10.70;99.46;101816.25;5104076;27;45319;-80
2022/11/10 03:56:45;;;;;;;;;16.00;15.00;;;;;10.68;99.38;101831.50;5103707;27;45271;-81
2022/11/10 03:59:10;;;;;;;;;12.00;10.00;;;;;10.69;99.13;101835.03;5102990;27;50735;-80
2022/11/10 04:01:35;;;;;;;;;14.33;13.00;;;;;10.68;99.42;101828.84;5109905;27;51623;-80
2022/11/10 04:04:01;;;;;;;;;15.00;12.67;;;;;10.63;99.31;101824.97;5103514;27;45338;-81
2022/11/10 04:09:10;;;;;;;;;9.33;9.33;;;;;10.58;99.74;101834.25;5102374;27;45329;-81
2022/11/10 04:17:03;;;;;;;;;10.67;10.67;;;;;10.60;99.85;101850.03;5088030;27;45377;-81
2022/11/10 04:19:29;;;;;;;;;10.67;10.67;;;;;10.58;100.00;101841.38;5102854;27;45531;-81
2022/11/10 04:21:55;;;;;;;;;12.67;11.67;;;;;10.57;100.00;101845.84;5102069;27;46324;-81
2022/11/10 04:24:20;;;;;;;;;12.00;11.67;;;;;10.53;100.00;101840.97;5102284;27;45258;-81
2022/11/10 04:26:47;;;;;;;;;13.00;13.00;;;;;10.52;100.00;101836.63;5097553;27;45374;-81
2022/11/10 04:29:14;;;;;;;;;12.00;10.33;;;;;10.55;100.00;101852.28;5102343;27;45743;-81
2022/11/10 04:31:40;;;;;;;;;13.00;13.00;;;;;10.51;100.00;101854.41;5091219;27;45457;-80
2022/11/10 04:34:08;;;;;;;;;11.33;10.00;;;;;10.54;100.00;101856.75;5100950;27;45321;-81
2022/11/10 04:36:35;;;;;;;;;12.33;10.00;;;;;10.42;100.00;101840.13;5103194;27;45312;-80
2022/11/10 04:39:03;;;;;;;;;9.33;8.00;;;;;10.57;100.00;101863.63;5097572;27;45461;-80
2022/11/10 04:41:29;;;;;;;;;10.00;10.00;;;;;10.59;100.00;101864.28;5090156;27;46118;-81
2022/11/10 04:43:55;;;;;;;;;9.33;8.67;;;;;10.58;100.00;101855.50;5101947;27;45449;-80
2022/11/10 04:46:26;;;;;;;;;9.33;8.67;;;;;10.61;100.00;101867.66;5102505;27;45327;-81
2022/11/10 04:48:53;;;;;;;;;12.33;12.33;;;;;10.57;100.00;101868.94;5103086;27;45694;-81
2022/11/10 04:51:20;;;;;;;;;12.67;11.00;;;;;10.57;100.00;101859.13;5101788;27;46683;-81
2022/11/10 04:53:46;;;;;;;;;12.33;12.33;;;;;10.56;100.00;101877.88;5102447;27;45360;-80
2022/11/10 04:56:16;;;;;;;;;12.33;10.33;;;;;10.58;100.00;101883.91;5101241;27;45324;-80
2022/11/10 04:58:41;;;;;;;;;14.00;12.33;;;;;10.58;100.00;101891.88;5102053;27;45303;-81
2022/11/10 05:01:11;;;;;;;;;14.67;9.67;;;;;10.53;100.00;101886.19;5105330;27;46122;-80
2022/11/10 05:03:37;;;;;;;;;13.33;11.00;;;;;10.55;100.00;101881.53;5089775;27;45540;-80
2022/11/10 05:06:02;;;;;;;;;13.00;11.00;;;;;10.57;100.00;101892.88;5101295;27;45323;-80
2022/11/10 05:08:28;;;;;;;;;13.00;13.00;;;;;10.53;100.00;101888.84;5103406;27;45864;-80
2022/11/10 05:10:53;;;;;;;;;16.00;11.67;;;;;10.54;100.00;101896.63;5101138;27;50534;-79
2022/11/10 05:13:18;;;;;;;;;12.00;10.67;;;;;10.60;100.00;101895.22;5101950;27;45390;-79
2022/11/10 05:15:44;;;;;;;;;17.33;14.33;;;;;10.60;100.00;101911.19;5096771;27;45321;-79
2022/11/10 05:18:09;;;;;;;;;11.00;11.00;;;;;10.61;100.00;101912.84;5092433;27;48092;-80
2022/11/10 05:20:35;;;;;;;;;13.67;13.33;;;;;10.59;100.00;101920.97;5115293;27;47295;-80
2022/11/10 05:25:44;;;;;;;;;13.67;12.33;;;;;10.55;100.00;101921.41;5086757;27;45419;-80
2022/11/10 05:28:11;;;;;;;;;14.00;13.00;;;;;10.59;100.00;101925.44;5101019;27;45293;-80
2022/11/10 05:30:37;;;;;;;;;15.00;13.00;;;;;10.52;100.00;101925.19;5100962;27;45441;-81
2022/11/10 05:33:03;;;;;;;;;15.00;13.00;;;;;10.60;100.00;101935.94;5101061;27;45728;-80
2022/11/10 05:35:29;;;;;;;;;14.33;14.33;;;;;10.50;100.00;101921.84;5112169;27;45340;-80
2022/11/10 05:37:54;;;;;;;;;11.67;11.67;;;;;10.50;100.00;101919.19;5100680;27;45624;-80
2022/11/10 05:40:20;;;;;;;;;13.33;13.33;;;;;10.48;100.00;101921.16;5099534;27;47524;-80
2022/11/10 05:42:53;;;;;;;;;17.00;14.33;;;;;10.42;100.00;101927.84;5100581;27;45250;-80
2022/11/10 05:45:21;;;;;;;;;14.00;14.00;;;;;10.45;100.00;101938.22;5101335;27;45216;-80
2022/11/10 05:47:47;;;;;;;;;16.00;15.33;;;;;10.46;100.00;101939.06;5114800;27;46173;-80
2022/11/10 05:50:13;;;;;;;;;10.33;10.00;;;;;10.40;100.00;101939.59;5100506;27;45361;-80
2022/11/10 05:52:42;;;;;;;;;14.67;12.33;;;;;10.45;100.00;101954.16;5097898;27;45384;-80
2022/11/10 05:55:08;;;;;;;;;16.67;14.67;;;;;10.46;100.00;101961.16;5099324;27;45315;-79
2022/11/10 05:57:33;;;;;;;;;17.67;17.00;;;;;10.42;100.00;101945.63;5084298;27;46240;-80
2022/11/10 05:59:59;;;;;;;;;13.67;13.33;;;;;10.42;100.00;101948.28;5100574;27;45329;-80
2022/11/10 06:02:24;;;;;;;;;15.67;14.67;;;;;10.36;100.00;101952.34;5106967;27;45372;-80
2022/11/10 06:04:49;;;;;;;;;15.67;15.00;;;;;10.39;100.00;101953.88;5095791;27;45471;-80
2022/11/10 06:07:15;;;;;;;;;17.00;16.00;;;;;10.35;100.00;101958.63;5090712;27;45578;-80
2022/11/10 06:09:40;;;;;;;;;14.67;14.33;;;;;10.36;100.00;101960.31;5096147;27;46849;-80
2022/11/10 06:12:06;;;;;;;;;18.00;15.00;;;;;10.30;100.00;101958.22;5088632;27;45365;-79
2022/11/10 06:14:31;;;;;;;;;7.67;7.33;;;;;10.31;100.00;101968.72;5099235;27;45538;-80
2022/11/10 06:16:56;;;;;;;;;14.00;14.00;;;;;10.29;100.00;101968.00;5098113;27;47239;-81
2022/11/10 06:19:22;;;;;;;;;15.00;15.00;;;;;10.20;100.00;101961.72;5098944;27;47150;-80
2022/11/10 06:21:47;;;;;;;;;14.00;13.33;;;;;10.17;100.00;101963.81;5099583;27;45305;-80
2022/11/10 06:24:12;;;;;;;;;17.67;13.00;;;;;10.25;100.00;101971.94;5085039;27;45444;-80
2022/11/10 06:26:38;;;;;;;;;14.67;14.67;;;;;10.18;100.00;101970.84;5100114;27;45501;-80
2022/11/10 06:29:03;;;;;;;;;16.00;16.00;;;;;10.22;100.00;101980.19;5113953;27;51173;-80
2022/11/10 06:31:28;;;;;;;;;16.00;15.67;;;;;10.18;100.00;101984.13;5099827;27;52805;-80
2022/11/10 06:33:54;;;;;;;;;15.67;15.00;;;;;10.14;100.00;101975.56;5099801;27;46378;-80
2022/11/10 06:36:20;;;;;;;;;15.67;15.00;;;;;10.15;100.00;101987.88;5091680;27;45299;-80
2022/11/10 06:38:45;;;;;;;;;16.67;15.33;;;;;10.13;100.00;101984.53;5093764;27;45323;-79
2022/11/10 06:41:11;;;;;;;;;15.67;15.67;;;;;10.15;100.00;101990.53;5099926;27;45389;-80
2022/11/10 06:43:36;;;;;;;;;13.00;13.00;;;;;10.17;100.00;102001.00;5099875;27;45309;-80
2022/11/10 06:46:01;;;;;;;;;17.00;17.00;;;;;10.07;100.00;101998.38;5099793;27;45203;-79
2022/11/10 06:48:27;;;;;;;;;16.00;16.00;;;;;10.14;100.00;102010.13;5095041;27;47082;-80
2022/11/10 06:50:52;;;;;;;;;18.00;15.33;;;;;10.11;100.00;102002.41;5095508;27;45215;-80
2022/11/10 06:53:17;;;;;;;;;15.00;15.00;;;;;10.14;100.00;102009.28;5099715;27;45128;-80
2022/11/10 06:55:43;;;;;;;;;18.00;17.00;;;;;10.13;100.00;102015.56;5099634;27;45346;-79
2022/11/10 06:58:09;;;;;;;;;15.00;13.33;;;;;10.16;100.00;102028.56;5099421;27;45767;-79
2022/11/10 07:00:35;;;;;;;;;22.33;19.33;;;;;10.14;100.00;102023.41;5103742;27;45228;-80
2022/11/10 07:03:06;;;;;;;;;19.33;18.67;;;;;10.13;100.00;102020.88;5100429;27;45420;-79
2022/11/10 07:05:35;;;;;;;;;19.00;17.67;;;;;10.14;100.00;102028.72;5098149;27;46023;-78
2022/11/10 07:08:06;;;;;;;;;17.33;17.33;;;;;10.27;100.00;102039.09;5099026;27;45374;-79
2022/11/10 07:10:32;;;;;;;;;18.33;18.33;;;;;10.30;100.00;102040.59;5099406;27;45295;-79
2022/11/10 07:12:58;;;;;;;;;22.00;20.33;;;;;10.37;100.00;102039.06;5099426;27;45145;-80
2022/11/10 07:15:24;;;;;;;;;19.00;18.67;;;;;10.21;100.00;102035.13;5094346;27;46213;-79
2022/11/10 07:17:49;;;;;;;;;21.67;19.33;;;;;10.27;100.00;102049.72;5088919;27;45891;-79
2022/11/10 07:20:14;;;;;;;;;21.33;21.33;;;;;10.28;100.00;102046.06;5099261;27;45214;-80
2022/11/10 07:22:40;;;;;;;;;23.00;23.00;;;;;10.37;100.00;102070.94;5099133;27;45409;-80
2022/11/10 07:25:05;;;;;;;;;23.33;22.67;;;;;10.36;100.00;102067.44;5099334;27;45344;-80
2022/11/10 07:27:31;;;;;;;;;24.67;23.33;;;;;10.41;100.00;102075.00;5102771;27;45240;-80
2022/11/10 07:29:56;;;;;;;;;21.33;21.33;;;;;10.47;100.00;102081.59;5098080;27;45327;-80
2022/11/10 07:32:21;;;;;;;;;24.33;23.33;;;;;10.43;100.00;102064.22;5099615;27;45333;-80
2022/11/10 07:34:47;;;;;;;;;26.33;23.00;;;;;10.49;100.00;102066.38;5102931;27;45328;-79
2022/11/10 07:37:12;;;;;;;;;17.67;14.67;;;;;10.57;100.00;102065.66;5102334;27;45303;-80
2022/11/10 07:39:37;;;;;;;;;24.33;24.33;;;;;10.60;100.00;102068.03;5098023;27;45390;-79
2022/11/10 07:42:03;;;;;;;;;26.67;23.00;;;;;10.64;100.00;102074.75;5096197;27;45592;-79
2022/11/10 07:44:28;;;;;;;;;20.67;19.33;;;;;10.65;100.00;102079.06;5102856;27;45539;-80
2022/11/10 07:46:53;;;;;;;;;25.00;20.00;;;;;10.67;100.00;102084.25;5101215;27;48377;-80
2022/11/10 07:49:19;;;;;;;;;22.00;21.00;;;;;10.73;100.00;102081.88;5100626;27;51810;-79
2022/11/10 07:51:44;;;;;;;;;24.33;20.67;;;;;10.74;100.00;102077.38;5101493;27;45431;-78
2022/11/10 07:54:09;;;;;;;;;24.33;23.00;;;;;10.83;100.00;102091.63;5095307;27;45575;-80
2022/11/10 07:56:35;;;;;;;;;22.33;20.67;;;;;10.83;100.00;102086.31;5081451;27;45344;-80
2022/11/10 07:59:00;;;;;;;;;20.67;20.67;;;;;10.94;100.00;102104.78;5084368;27;45341;-79
2022/11/10 08:01:25;;;;;;;;;21.67;20.67;;;;;11.01;100.00;102106.88;5096931;27;45307;-79
2022/11/10 08:03:51;;;;;;;;;20.67;18.67;;;;;10.97;100.00;102107.19;5094827;27;45797;-80
2022/11/10 08:06:16;;;;;;;;;18.67;18.00;;;;;11.02;100.00;102116.53;5103861;27;47370;-79
2022/11/10 08:08:41;;;;;;;;;21.33;21.00;;;;;11.07;100.00;102130.22;5101957;27;45334;-79
2022/11/10 08:11:07;;;;;;;;;25.33;24.00;;;;;11.09;100.00;102134.44;5102273;27;45579;-78
2022/11/10 08:13:32;;;;;;;;;19.00;18.00;;;;;11.17;100.00;102141.72;5104246;27;45500;-77
2022/11/10 08:15:58;;;;;;;;;22.00;21.00;;;;;11.27;100.00;102159.47;5102698;27;45333;-79
2022/11/10 08:18:24;;;;;;;;;22.67;22.67;;;;;11.20;100.00;102141.41;5112448;27;45185;-80
2022/11/10 08:20:50;;;;;;;;;20.00;19.00;;;;;11.52;100.00;102167.81;5093602;27;45493;-80
2022/11/10 08:23:16;;;;;;;;;23.67;18.67;;;;;11.58;100.00;102160.06;5083984;27;45522;-80
2022/11/10 08:25:42;;;;;;;;;24.00;24.00;;;;;11.70;100.00;102167.91;5083924;27;45415;-80
2022/11/10 08:28:10;;;;;;;;;21.00;20.00;;;;;11.64;100.00;102166.63;5094381;27;45500;-81
2022/11/10 08:30:37;;;;;;;;;25.00;23.00;;;;;11.73;100.00;102180.91;5082086;27;45338;-82
2022/11/10 08:33:05;;;;;;;;;25.33;23.00;;;;;11.77;100.00;102192.97;5086330;27;45235;-81
2022/11/10 08:35:33;;;;;;;;;22.33;20.33;;;;;11.85;100.00;102189.53;5088439;27;46324;-81
2022/11/10 08:38:06;;;;;;;;;20.00;20.00;;;;;11.87;100.00;102180.44;5079735;27;45291;-80
2022/11/10 08:40:31;;;;;;;;;27.67;26.67;;;;;11.91;100.00;102175.63;5113299;27;45298;-76
2022/11/10 08:42:59;;;;;;;;;20.00;18.33;;;;;12.02;100.00;102185.25;5120265;27;46281;-76
2022/11/10 08:45:24;;;;;;;;;22.33;22.33;;;;;11.95;100.00;102179.69;5120266;27;45080;-76
2022/11/10 08:48:01;;;;;;;;;21.33;19.67;;;;;12.00;100.00;102169.41;5127493;27;45144;-76
2022/11/10 08:50:28;;;;;;;;;24.67;21.00;;;;;12.14;100.00;102175.25;5121844;27;45177;-76
2022/11/10 08:52:54;;;;;;;;;16.00;15.00;;;;;12.20;100.00;102188.00;5121257;27;44642;-76
2022/11/10 08:55:20;;;;;;;;;23.67;21.00;;;;;12.27;100.00;102179.41;5125524;27;45148;-81
2022/11/10 08:57:46;;;;;;;;;20.33;18.67;;;;;12.41;100.00;102194.03;5125419;27;44741;-81
2022/11/10 09:00:13;;;;;;;;;25.33;23.67;;;;;12.25;100.00;102185.72;5115755;27;45490;-82
2022/11/10 09:02:38;;;;;;;;;16.67;16.00;;;;;12.35;100.00;102201.66;5124161;27;45304;-81
2022/11/10 09:05:04;;;;;;;;;18.00;17.33;;;;;12.32;100.00;102206.44;5104320;27;45334;-81
2022/11/10 09:07:30;;;;;;;;;16.33;16.33;;;;;12.39;100.00;102212.03;5119697;27;45255;-80
2022/11/10 09:09:56;;;;;;;;;15.00;15.00;;;;;12.39;100.00;102198.69;5125926;27;45321;-80
2022/11/10 09:12:21;;;;;;;;;17.00;14.00;;;;;12.42;100.00;102204.53;5122725;27;45477;-80
2022/11/10 09:14:46;;;;;;;;;15.00;15.00;;;;;12.52;100.00;102215.16;5115909;27;46010;-80
2022/11/10 09:17:12;;;;;;;;;17.67;17.33;;;;;12.48;100.00;102193.28;5106722;27;45614;-81
2022/11/10 09:19:37;;;;;;;;;15.67;15.67;;;;;12.57;100.00;102228.06;5090471;27;45689;-80
2022/11/10 09:22:03;;;;;;;;;15.00;15.00;;;;;12.49;100.00;102218.94;5109448;27;45708;-80
2022/11/10 09:24:28;;;;;;;;;16.00;14.67;;;;;12.56;100.00;102227.19;5114519;27;45525;-80
2022/11/10 09:26:55;;;;;;;;;18.33;17.00;;;;;12.55;100.00;102232.69;5109196;27;46039;-80
2022/11/10 09:29:21;;;;;;;;;19.67;18.67;;;;;12.64;100.00;102234.44;5096141;27;45344;-80
2022/11/10 09:31:47;;;;;;;;;17.67;17.67;;;;;12.73;100.00;102249.56;5115617;27;46112;-80
2022/11/10 09:34:12;;;;;;;;;19.67;18.00;;;;;12.78;100.00;102249.06;5120423;27;45348;-81
2022/11/10 09:36:39;;;;;;;;;17.00;17.00;;;;;12.84;100.00;102245.81;5113111;27;45331;-77
2022/11/10 09:39:05;;;;;;;;;17.33;16.33;;;;;12.87;100.00;102231.34;5101456;27;45338;-77
2022/11/10 09:41:31;;;;;;;;;21.00;18.33;;;;;12.90;100.00;102239.00;5101350;27;45403;-77
2022/11/10 09:44:12;;;;;;;;;20.33;19.33;;;;;12.98;100.00;102248.94;5093694;27;45294;-77
2022/11/10 09:46:42;;;;;;;;;20.00;19.00;;;;;12.95;100.00;102238.56;5095066;27;45336;-76
2022/11/10 09:49:23;;;;;;;;;18.33;17.67;;;;;13.07;100.00;102255.16;5101337;27;45253;-77
2022/11/10 09:51:51;;;;;;;;;18.33;16.33;;;;;13.04;100.00;102255.47;5100165;27;45250;-77
2022/11/10 09:54:29;;;;;;;;;17.00;17.00;;;;;13.17;100.00;102260.44;5100064;27;46401;-77
2022/11/10 09:56:59;;;;;;;;;18.33;18.33;;;;;13.18;100.00;102259.44;5100150;27;46366;-77
2022/11/10 09:59:31;;;;;;;;;17.67;15.33;;;;;13.22;100.00;102263.47;5100268;27;45411;-77
2022/11/10 10:02:07;;;;;;;;;16.00;15.67;;;;;13.22;100.00;102269.66;5100833;27;45279;-77
2022/11/10 10:04:55;;;;;;;;;18.00;17.00;;;;;13.28;100.00;102273.53;5100147;27;46162;-77
2022/11/10 10:07:38;;;;;;;;;17.33;16.33;;;;;13.32;100.00;102268.75;5095588;27;45389;-77
2022/11/10 10:10:11;;;;;;;;;23.33;21.33;;;;;13.36;100.00;102272.78;5098685;27;45326;-77
2022/11/10 10:12:54;;;;;;;;;36.75;32.75;;;;;13.43;100.00;102273.81;5099737;27;45495;-77
2022/11/10 10:15:36;;;;;;;;;20.33;18.00;;;;;13.41;100.00;102273.13;5099429;27;46646;-76
2022/11/10 10:18:16;;;;;;;;;19.00;18.00;;;;;13.46;100.00;102281.53;5087722;27;45171;-75
2022/11/10 10:20:52;;;;;;;;;26.00;25.00;;;;;13.56;100.00;102284.13;5100612;27;45318;-76
2022/11/10 10:23:30;;;;;;;;;21.67;20.00;;;;;13.64;100.00;102283.34;5097200;27;45308;-76
2022/11/10 10:25:55;;;;;;;;;20.00;19.00;;;;;13.72;100.00;102285.22;5090002;27;45200;-76
2022/11/10 10:28:21;;;;;;;;;15.33;15.33;;;;;13.82;100.00;102295.81;5098421;27;45280;-76
2022/11/10 10:30:46;;;;;;;;;21.00;19.67;;;;;13.86;100.00;102302.53;5100465;27;45325;-76
2022/11/10 10:33:22;;;;;;;;;26.00;23.67;;;;;13.86;100.00;102289.97;5095800;27;45864;-76
2022/11/10 10:35:49;;;;;;;;;26.67;24.67;;;;;13.89;100.00;102291.53;5085316;27;46523;-76
2022/11/10 10:38:20;;;;;;;;;17.33;15.67;;;;;13.91;100.00;102302.88;5085256;27;45437;-77
2022/11/10 10:40:48;;;;;;;;;23.00;23.00;;;;;13.92;100.00;102311.75;5081098;27;45500;-77
2022/11/10 10:43:14;;;;;;;;;21.67;19.67;;;;;13.93;100.00;102308.06;5087906;27;46474;-77
2022/11/10 10:45:41;;;;;;;;;14.33;14.33;;;;;14.03;100.00;102322.16;5096272;27;46132;-76
2022/11/10 10:48:24;;;;;;;;;19.33;18.00;;;;;14.06;100.00;102326.34;5090522;27;45384;-79
2022/11/10 10:50:49;;;;;;;;;19.00;19.00;;;;;14.07;100.00;102326.19;5095579;27;45313;-80
2022/11/10 10:53:21;;;;;;;;;20.33;18.67;;;;;14.21;100.00;102338.13;5084666;27;45369;-79
2022/11/10 10:55:53;;;;;;;;;24.00;22.33;;;;;14.25;100.00;102336.81;5092297;27;47927;-79
2022/11/10 10:58:18;;;;;;;;;23.67;22.67;;;;;14.26;100.00;102334.97;5090241;27;45483;-79
2022/11/10 11:00:47;;;;;;;;;20.67;20.67;;;;;14.29;100.00;102328.47;5098145;27;45456;-80
2022/11/10 11:03:24;;;;;;;;;25.33;21.33;;;;;14.34;100.00;102326.97;5088329;27;47588;-80
2022/11/10 11:06:01;;;;;;;;;20.00;19.67;;;;;14.33;100.00;102325.31;5103836;27;45234;-79
2022/11/10 11:08:26;;;;;;;;;22.00;20.67;;;;;14.33;100.00;102311.09;5102823;27;45408;-81
2022/11/10 11:10:52;;;;;;;;;22.67;20.00;;;;;14.38;100.00;102306.13;5103109;27;45318;-82
2022/11/10 11:13:26;;;;;;;;;27.00;27.00;;;;;14.41;100.00;102310.28;5103531;27;45473;-78
2022/11/10 11:16:00;;;;;;;;;22.33;21.33;;;;;14.45;100.00;102317.84;5095833;27;45596;-78
2022/11/10 11:18:28;;;;;;;;;16.67;16.67;;;;;14.52;100.00;102313.50;5097461;27;45869;-77